Time;durP1;ratioP1;P1;durP2;ratioP2;P2;SDS_P1;SDS_P2;PMS_P1;PMS_P2;Temp;Humidity;BMP_temperature;BMP_pressure;BME280_temperature;BME280_humidity;BME280_pressure;Samples;Min_cycle;Max_cycle;Signal;HPM_P1;HPM_P2
2022/12/07 00:00:00;;;;;;;;;;;;;;;25.79;41.23;94147.16;4981282;28;7101;-62
2022/12/07 00:02:28;;;;;;;;;;;;;;;25.78;41.64;94151.91;4991337;28;7477;-62
2022/12/07 00:04:56;;;;;;;;;;;;;;;25.78;41.67;94140.91;4985398;28;8284;-63
2022/12/07 00:07:36;;;;;;;;;;;;;;;25.77;41.85;94139.44;4984493;28;7304;-62
2022/12/07 00:10:13;;;;;;;;;;;;;;;25.76;41.45;94148.94;4992820;28;9400;-63
2022/12/07 00:12:52;;;;;;;;;;;;;;;25.74;41.53;94134.94;4987385;28;7247;-62
2022/12/07 00:15:30;;;;;;;;;;;;;;;25.76;42.18;94137.16;4991379;28;7867;-62
2022/12/07 00:18:33;;;;;;;;;;;;;;;25.76;41.52;94148.19;4990721;28;7239;-63
2022/12/07 00:21:19;;;;;;;;;;;;;;;25.76;42.20;94148.94;4976023;28;7294;-62
2022/12/07 00:23:51;;;;;;;;;;;;;;;25.76;41.14;94142.69;4988251;28;7054;-63
2022/12/07 00:26:26;;;;;;;;;;;;;;;25.77;42.15;94138.69;4982773;28;9314;-62
2022/12/07 00:28:54;;;;;;;;;;;;;;;25.77;41.57;94139.44;4986616;28;7022;-61
2022/12/07 00:31:24;;;;;;;;;;;;;;;25.74;41.79;94125.94;4978925;28;7008;-62
2022/12/07 00:33:57;;;;;;;;;;;;;;;25.75;41.75;94125.41;4980080;28;7781;-62
2022/12/07 00:36:30;;;;;;;;;;;;;;;25.76;41.61;94132.41;4987640;28;7279;-62
2022/12/07 00:38:59;;;;;;;;;;;;;;;25.75;41.88;94130.91;4987782;28;7318;-62
2022/12/07 00:41:30;;;;;;;;;;;;;;;25.75;41.38;94136.41;4988810;28;7039;-62
2022/12/07 00:43:58;;;;;;;;;;;;;;;25.74;42.12;94129.44;4982854;28;7283;-62
2022/12/07 00:46:25;;;;;;;;;;;;;;;25.76;41.71;94131.66;4978359;28;10384;-62
2022/12/07 00:48:59;;;;;;;;;;;;;;;25.74;41.21;94129.44;4983725;28;7371;-62
2022/12/07 00:51:26;;;;;;;;;;;;;;;25.74;42.11;94129.44;4988909;28;7283;-63
2022/12/07 00:53:52;;;;;;;;;;;;;;;25.74;41.59;94121.16;4977361;28;7274;-62
2022/12/07 00:56:22;;;;;;;;;;;;;;;25.76;42.01;94120.63;4999181;28;7168;-62
2022/12/07 00:58:53;;;;;;;;;;;;;;;25.74;41.97;94112.91;4988450;28;8716;-62
2022/12/07 01:01:20;;;;;;;;;;;;;;;25.74;41.30;94115.66;4982953;28;7617;-62
2022/12/07 01:03:51;;;;;;;;;;;;;;;25.74;41.63;94118.41;4991038;28;7369;-62
2022/12/07 01:06:25;;;;;;;;;;;;;;;25.73;41.78;94121.69;4995471;28;7361;-63
2022/12/07 01:08:54;;;;;;;;;;;;;;;25.73;41.64;94121.69;4993745;28;7350;-63
2022/12/07 01:11:30;;;;;;;;;;;;;;;25.72;41.94;94120.94;5002543;28;7358;-63
2022/12/07 01:13:58;;;;;;;;;;;;;;;25.73;42.05;94121.69;4981232;28;7566;-60
2022/12/07 01:16:27;;;;;;;;;;;;;;;25.73;41.18;94127.19;4993188;28;8754;-61
2022/12/07 01:19:05;;;;;;;;;;;;;;;25.73;41.87;94127.19;4984134;28;7048;-63
2022/12/07 01:21:39;;;;;;;;;;;;;;;25.71;41.65;94127.69;4979794;28;7046;-62
2022/12/07 01:24:14;;;;;;;;;;;;;;;25.72;41.97;94123.69;4989200;28;8948;-63
2022/12/07 01:26:40;;;;;;;;;;;;;;;25.72;41.89;94123.69;4984213;28;7054;-62
2022/12/07 01:29:09;;;;;;;;;;;;;;;25.71;41.51;94124.94;4993905;28;9064;-63
2022/12/07 01:31:35;;;;;;;;;;;;;;;25.71;41.47;94124.22;4986658;28;7847;-63
2022/12/07 01:34:16;;;;;;;;;;;;;;;25.72;41.89;94131.97;4976325;28;8495;-63
2022/12/07 01:37:13;;;;;;;;;;;;;;;25.72;42.08;94131.22;4983376;28;7507;-63
2022/12/07 01:39:43;;;;;;;;;;;;;;;25.69;41.57;94121.97;4945345;28;7341;-62
2022/12/07 01:42:12;;;;;;;;;;;;;;;25.72;41.64;94129.22;4935069;28;9320;-62
2022/12/07 01:45:16;;;;;;;;;;;;;;;25.72;41.04;94120.94;4941849;28;9013;-62
2022/12/07 01:47:57;;;;;;;;;;;;;;;25.71;41.68;94119.44;4949938;28;7068;-62
2022/12/07 01:50:31;;;;;;;;;;;;;;;25.71;41.45;94113.94;4931842;28;9018;-62
2022/12/07 01:53:04;;;;;;;;;;;;;;;25.71;41.91;94119.44;4947182;28;7395;-62
2022/12/07 01:55:36;;;;;;;;;;;;;;;25.70;41.53;94120.72;4934235;28;9006;-62
2022/12/07 01:58:47;;;;;;;;;;;;;;;25.71;40.93;94124.22;4937730;28;8333;-62
2022/12/07 02:01:13;;;;;;;;;;;;;;;25.72;41.79;94120.19;4881359;29;7342;-63
2022/12/07 02:03:44;;;;;;;;;;;;;;;25.72;41.27;94114.69;4878577;29;7893;-63
2022/12/07 02:06:28;;;;;;;;;;;;;;;25.72;41.08;94114.69;4885827;29;7265;-62
2022/12/07 02:08:55;;;;;;;;;;;;;;;25.72;41.27;94115.44;4893557;29;6848;-63
2022/12/07 02:11:22;;;;;;;;;;;;;;;25.71;41.55;94111.19;4896358;29;7352;-62
2022/12/07 02:13:51;;;;;;;;;;;;;;;25.71;41.49;94113.22;4888520;29;7046;-62
2022/12/07 02:16:51;;;;;;;;;;;;;;;25.70;42.00;94106.94;4900691;29;7340;-62
2022/12/07 02:19:24;;;;;;;;;;;;;;;25.71;41.08;94110.44;4921293;28;7060;-62
2022/12/07 02:25:33;;;;;;;;;;;;;;;25.70;41.98;94103.44;4938675;28;7247;-63
2022/12/07 02:28:09;;;;;;;;;;;;;;;25.71;41.05;94100.16;4945258;28;7018;-62
2022/12/07 02:30:44;;;;;;;;;;;;;;;25.68;41.73;94101.22;4933271;28;7268;-61
2022/12/07 02:33:31;;;;;;;;;;;;;;;25.70;41.73;94100.69;4941681;28;7029;-62
2022/12/07 02:36:18;;;;;;;;;;;;;;;25.70;41.52;94106.19;4948890;28;7098;-63
2022/12/07 02:38:47;;;;;;;;;;;;;;;25.69;41.62;94108.19;4971529;28;9527;-62
2022/12/07 02:41:27;;;;;;;;;;;;;;;25.71;41.35;94107.69;5004102;28;7025;-62
2022/12/07 02:44:07;;;;;;;;;;;;;;;25.71;41.10;94105.66;4984882;28;9649;-62
2022/12/07 02:46:38;;;;;;;;;;;;;;;25.72;41.02;94095.41;4988758;28;7939;-63
2022/12/07 02:49:26;;;;;;;;;;;;;;;25.71;41.32;94100.16;4992985;28;7038;-63
2022/12/07 02:51:59;;;;;;;;;;;;;;;25.69;41.35;94102.69;4989671;28;8977;-63
2022/12/07 02:54:29;;;;;;;;;;;;;;;25.70;41.33;94106.94;4987609;28;7168;-63
2022/12/07 02:56:59;;;;;;;;;;;;;;;25.70;41.19;94101.44;4993292;28;7464;-62
2022/12/07 02:59:43;;;;;;;;;;;;;;;25.70;41.08;94095.19;4975617;28;7098;-63
2022/12/07 03:02:30;;;;;;;;;;;;;;;25.69;41.84;94086.16;5000109;28;7203;-62
2022/12/07 03:05:14;;;;;;;;;;;;;;;25.70;41.44;94087.66;4987495;28;7437;-62
2022/12/07 03:08:03;;;;;;;;;;;;;;;25.69;41.75;94091.66;4979445;28;7045;-62
2022/12/07 03:10:51;;;;;;;;;;;;;;;25.70;41.41;94089.66;4993581;28;7135;-62
2022/12/07 03:13:22;;;;;;;;;;;;;;;25.69;41.27;94088.16;5001843;28;6862;-62
2022/12/07 03:16:10;;;;;;;;;;;;;;;25.68;41.46;94081.94;4991469;28;7152;-63
2022/12/07 03:18:45;;;;;;;;;;;;;;;25.67;41.76;94080.44;4993125;28;7909;-63
2022/12/07 03:21:21;;;;;;;;;;;;;;;25.67;40.82;94083.19;4989227;28;9309;-62
2022/12/07 03:23:58;;;;;;;;;;;;;;;25.66;41.60;94078.94;4978405;28;7472;-63
2022/12/07 03:26:35;;;;;;;;;;;;;;;25.67;41.90;94079.69;4992335;28;6990;-62
2022/12/07 03:29:36;;;;;;;;;;;;;;;25.67;41.74;94085.19;4987881;28;8551;-62
2022/12/07 03:32:23;;;;;;;;;;;;;;;25.67;41.82;94091.44;4949126;28;7061;-61
2022/12/07 03:35:12;;;;;;;;;;;;;;;25.67;40.79;94094.19;4945438;28;8622;-61
2022/12/07 03:38:11;;;;;;;;;;;;;;;25.66;41.04;94089.97;4935909;28;9527;-63
2022/12/07 03:40:54;;;;;;;;;;;;;;;25.65;40.87;94085.72;4949262;28;7277;-62
2022/12/07 03:43:21;;;;;;;;;;;;;;;25.66;41.27;94084.47;4951421;28;7862;-61
2022/12/07 03:46:07;;;;;;;;;;;;;;;25.67;41.29;94085.19;4950876;28;8588;-62
2022/12/07 03:49:12;;;;;;;;;;;;;;;25.67;41.66;94079.69;4921124;29;10362;-62
2022/12/07 03:52:15;;;;;;;;;;;;;;;25.66;40.76;94080.94;4943585;29;8475;-62
2022/12/07 03:55:22;;;;;;;;;;;;;;;25.65;41.03;94080.19;4952838;29;9203;-63
2022/12/07 03:57:54;;;;;;;;;;;;;;;25.65;40.96;94071.19;4916610;29;7060;-62
2022/12/07 04:00:23;;;;;;;;;;;;;;;25.65;41.29;94077.44;4926953;29;7351;-63
2022/12/07 04:02:52;;;;;;;;;;;;;;;25.67;40.86;94085.19;4950907;29;7180;-62
2022/12/07 04:05:18;;;;;;;;;;;;;;;25.66;40.89;94084.47;4934150;29;6872;-63
2022/12/07 04:07:45;;;;;;;;;;;;;;;25.64;41.58;94084.22;4956787;28;7273;-62
2022/12/07 04:10:16;;;;;;;;;;;;;;;25.66;41.91;94087.22;4991449;28;7222;-61
2022/12/07 04:12:42;;;;;;;;;;;;;;;25.66;41.09;94089.22;4978357;28;9431;-62
2022/12/07 04:15:10;;;;;;;;;;;;;;;25.65;41.08;94093.22;4988410;28;9510;-62
2022/12/07 04:17:50;;;;;;;;;;;;;;;25.65;41.40;94096.72;4991788;28;8236;-63
2022/12/07 04:20:26;;;;;;;;;;;;;;;25.65;41.67;94091.22;4992411;28;7165;-62
2022/12/07 04:22:55;;;;;;;;;;;;;;;25.65;41.39;94091.22;4991233;28;7254;-62
2022/12/07 04:25:21;;;;;;;;;;;;;;;25.64;41.29;94081.47;4984620;28;7223;-62
2022/12/07 04:27:50;;;;;;;;;;;;;;;25.64;41.05;94083.47;4978385;28;8745;-62
2022/12/07 04:30:21;;;;;;;;;;;;;;;25.65;41.06;94082.19;4978298;28;7230;-62
2022/12/07 04:32:49;;;;;;;;;;;;;;;25.65;41.18;94082.19;4985575;28;7188;-62
2022/12/07 04:35:15;;;;;;;;;;;;;;;25.65;40.68;94079.44;4987285;28;8620;-63
2022/12/07 04:37:43;;;;;;;;;;;;;;;25.64;40.54;94084.22;4978812;28;7629;-62
2022/12/07 04:40:10;;;;;;;;;;;;;;;25.64;40.96;94084.22;4989496;28;7044;-63
2022/12/07 04:42:37;;;;;;;;;;;;;;;25.64;41.52;94084.22;4987690;28;9025;-62
2022/12/07 04:45:06;;;;;;;;;;;;;;;25.64;41.34;94087.00;5002196;28;7129;-62
2022/12/07 04:47:32;;;;;;;;;;;;;;;25.65;41.33;94088.47;4991616;28;7053;-63
2022/12/07 04:49:58;;;;;;;;;;;;;;;25.64;41.08;94089.75;4989615;28;8619;-62
2022/12/07 04:52:25;;;;;;;;;;;;;;;25.65;41.49;94090.47;4984808;28;7024;-61
2022/12/07 04:54:53;;;;;;;;;;;;;;;25.63;41.29;94079.22;4992961;28;7273;-62
2022/12/07 04:57:22;;;;;;;;;;;;;;;25.65;41.28;94091.22;5000461;28;7430;-60
2022/12/07 04:59:55;;;;;;;;;;;;;;;25.64;41.26;94084.22;4979920;28;7303;-61
2022/12/07 05:02:23;;;;;;;;;;;;;;;25.65;41.43;94088.47;4979991;28;8227;-63
2022/12/07 05:04:49;;;;;;;;;;;;;;;25.64;41.38;94084.22;4993770;28;7342;-62
2022/12/07 05:07:28;;;;;;;;;;;;;;;25.62;41.27;94086.72;4981525;28;9424;-63
2022/12/07 05:09:58;;;;;;;;;;;;;;;25.64;41.46;94084.22;4988273;28;7057;-63
2022/12/07 05:12:27;;;;;;;;;;;;;;;25.65;40.85;94095.97;4982201;28;7053;-63
2022/12/07 05:14:57;;;;;;;;;;;;;;;25.64;40.74;94087.00;4994319;28;7397;-62
2022/12/07 05:17:32;;;;;;;;;;;;;;;25.64;40.94;94089.75;4979350;28;7230;-63
2022/12/07 05:20:30;;;;;;;;;;;;;;;25.65;40.50;94093.22;4985797;28;7165;-62
2022/12/07 05:23:01;;;;;;;;;;;;;;;25.62;40.99;94083.97;4960210;28;7002;-63
2022/12/07 05:25:37;;;;;;;;;;;;;;;25.63;41.53;94081.97;4936149;28;6930;-62
2022/12/07 05:28:15;;;;;;;;;;;;;;;25.61;41.61;94085.25;4947896;28;8383;-63
2022/12/07 05:30:42;;;;;;;;;;;;;;;25.63;41.00;94091.00;4945616;28;7246;-63
2022/12/07 05:33:08;;;;;;;;;;;;;;;25.61;41.10;94085.25;4936496;28;7205;-62
2022/12/07 05:35:38;;;;;;;;;;;;;;;25.63;40.66;94084.72;4940735;28;7250;-62
2022/12/07 05:38:18;;;;;;;;;;;;;;;25.63;41.43;94084.72;4948155;28;9063;-62
2022/12/07 05:40:45;;;;;;;;;;;;;;;25.61;40.76;94082.50;4925227;28;7441;-62
2022/12/07 05:43:28;;;;;;;;;;;;;;;25.63;41.63;94085.47;4937786;28;7213;-62
2022/12/07 05:46:09;;;;;;;;;;;;;;;25.65;41.15;94085.72;4945731;28;7113;-62
2022/12/07 05:48:40;;;;;;;;;;;;;;;25.65;41.12;94084.97;4961838;28;9079;-62
2022/12/07 05:51:05;;;;;;;;;;;;;;;25.65;41.00;94084.97;4955313;28;8634;-63
2022/12/07 05:53:31;;;;;;;;;;;;;;;25.64;40.93;94089.00;4953208;28;7299;-62
2022/12/07 05:56:16;;;;;;;;;;;;;;;25.69;41.49;94088.91;4939542;28;9135;-62
2022/12/07 05:59:22;;;;;;;;;;;;;;;25.69;41.13;94097.19;4962292;28;9305;-62
2022/12/07 06:01:49;;;;;;;;;;;;;;;25.75;41.32;94097.13;4937176;28;9829;-62
2022/12/07 06:04:17;;;;;;;;;;;;;;;25.79;41.13;94098.31;4944411;28;8858;-61
2022/12/07 06:06:50;;;;;;;;;;;;;;;25.80;40.83;94096.28;4940567;28;7002;-62
2022/12/07 06:09:36;;;;;;;;;;;;;;;25.84;41.27;94092.00;4953558;28;7119;-62
2022/12/07 06:15:09;;;;;;;;;;;;;;;25.86;41.03;94091.50;4936512;28;7125;-63
2022/12/07 06:17:47;;;;;;;;;;;;;;;25.85;41.26;94087.97;4933166;28;7241;-62
2022/12/07 06:20:15;;;;;;;;;;;;;;;25.86;40.43;94092.22;4951019;28;7045;-62
2022/12/07 06:23:06;;;;;;;;;;;;;;;25.89;40.81;94090.44;4934108;28;7268;-62
2022/12/07 06:25:45;;;;;;;;;;;;;;;25.88;40.77;94088.97;4945416;28;8263;-62
2022/12/07 06:28:13;;;;;;;;;;;;;;;25.86;40.84;94092.22;4934333;28;7029;-62
2022/12/07 06:30:42;;;;;;;;;;;;;;;25.85;41.01;94087.22;4948560;28;7784;-61
2022/12/07 06:33:08;;;;;;;;;;;;;;;25.85;40.52;94085.22;4944340;28;7284;-61
2022/12/07 06:35:37;;;;;;;;;;;;;;;25.86;41.38;94091.50;4944428;28;7218;-61
2022/12/07 06:38:04;;;;;;;;;;;;;;;25.83;41.45;94090.50;4930735;28;7100;-62
2022/12/07 06:40:32;;;;;;;;;;;;;;;25.85;41.50;94085.22;5003885;28;8248;-61
2022/12/07 06:42:57;;;;;;;;;;;;;;;25.86;41.63;94092.22;4984973;28;8593;-62
2022/12/07 06:45:26;;;;;;;;;;;;;;;25.90;40.84;94094.69;4985113;28;7467;-62
2022/12/07 06:48:26;;;;;;;;;;;;;;;25.93;40.80;94094.38;4982882;28;7366;-62
2022/12/07 06:50:53;;;;;;;;;;;;;;;25.92;40.41;94095.66;4935047;28;7043;-62
2022/12/07 06:53:31;;;;;;;;;;;;;;;25.92;40.78;94098.41;4933767;28;9305;-62
2022/12/07 06:56:14;;;;;;;;;;;;;;;25.89;41.09;94093.19;4935789;28;7284;-63
2022/12/07 06:58:59;;;;;;;;;;;;;;;25.91;40.59;94096.91;4934941;28;7042;-62
2022/12/07 07:01:28;;;;;;;;;;;;;;;25.89;40.86;94085.66;4935117;28;7049;-63
2022/12/07 07:03:54;;;;;;;;;;;;;;;25.89;41.14;94093.19;4933244;28;7267;-62
2022/12/07 07:06:31;;;;;;;;;;;;;;;25.88;40.75;94094.47;4952283;28;8998;-62
2022/12/07 07:09:09;;;;;;;;;;;;;;;25.86;41.25;94097.72;4945643;28;7097;-62
2022/12/07 07:11:48;;;;;;;;;;;;;;;25.89;41.52;94102.19;4926672;29;7564;-62
2022/12/07 07:14:18;;;;;;;;;;;;;;;25.91;40.71;94098.91;4948730;28;6988;-63
2022/12/07 07:16:45;;;;;;;;;;;;;;;25.90;41.53;94109.19;4934396;28;7074;-63
2022/12/07 07:19:20;;;;;;;;;;;;;;;25.89;41.25;94099.44;4949043;28;7028;-62
2022/12/07 07:22:07;;;;;;;;;;;;;;;25.89;40.89;94099.44;4925530;29;7042;-62
2022/12/07 07:24:34;;;;;;;;;;;;;;;25.91;42.06;94105.19;4945641;28;6993;-62
2022/12/07 07:27:02;;;;;;;;;;;;;;;25.90;41.01;94097.44;4985557;28;9242;-62
2022/12/07 07:29:34;;;;;;;;;;;;;;;25.91;41.24;94098.91;4994353;28;7223;-62
2022/12/07 07:32:12;;;;;;;;;;;;;;;25.92;41.11;94097.66;4985399;28;9187;-62
2022/12/07 07:34:42;;;;;;;;;;;;;;;25.92;40.98;94097.66;4978489;28;7314;-63
2022/12/07 07:37:10;;;;;;;;;;;;;;;25.90;41.03;94092.66;4992189;28;7160;-62
2022/12/07 07:40:00;;;;;;;;;;;;;;;25.92;41.55;94101.19;5002184;28;9741;-62
2022/12/07 07:42:36;;;;;;;;;;;;;;;25.89;41.04;94099.44;4990320;28;8497;-62
2022/12/07 07:45:02;;;;;;;;;;;;;;;25.89;41.38;94096.69;4989485;28;7050;-62
2022/12/07 07:47:28;;;;;;;;;;;;;;;25.90;41.35;94109.19;4991754;28;9340;-63
2022/12/07 07:49:54;;;;;;;;;;;;;;;25.91;41.21;94104.44;4998473;28;8843;-62
2022/12/07 07:52:38;;;;;;;;;;;;;;;25.91;41.77;94110.69;4983082;28;7499;-63
2022/12/07 07:55:09;;;;;;;;;;;;;;;25.89;41.25;94112.47;4992644;28;7233;-63
2022/12/07 07:57:38;;;;;;;;;;;;;;;25.89;41.32;94113.22;4982943;28;7458;-63
2022/12/07 08:00:08;;;;;;;;;;;;;;;25.91;41.48;94115.44;4985720;28;9165;-63
2022/12/07 08:02:34;;;;;;;;;;;;;;;25.90;41.44;94114.69;4997986;28;9362;-63
2022/12/07 08:05:00;;;;;;;;;;;;;;;25.89;41.17;94117.97;4987725;28;7263;-63
2022/12/07 08:07:30;;;;;;;;;;;;;;;25.90;41.05;94113.97;4981919;28;9514;-63
2022/12/07 08:09:58;;;;;;;;;;;;;;;25.88;41.02;94122.75;4976823;28;7109;-63
2022/12/07 08:12:28;;;;;;;;;;;;;;;25.92;40.99;94117.72;4980467;28;7096;-63
2022/12/07 08:15:20;;;;;;;;;;;;;;;25.91;41.44;94109.94;4979297;28;6982;-63
2022/12/07 08:17:48;;;;;;;;;;;;;;;25.92;41.44;94114.19;4933034;29;7110;-63
2022/12/07 08:20:26;;;;;;;;;;;;;;;25.91;41.23;94115.44;4933064;29;7308;-63
2022/12/07 08:22:55;;;;;;;;;;;;;;;25.91;41.20;94118.22;4922645;29;7042;-63
2022/12/07 08:25:24;;;;;;;;;;;;;;;25.91;41.28;94116.22;4931399;29;9397;-63
2022/12/07 08:27:51;;;;;;;;;;;;;;;25.92;41.68;94123.22;4930499;29;9007;-63
2022/12/07 08:30:20;;;;;;;;;;;;;;;25.93;41.39;94123.94;4917028;29;7549;-63
2022/12/07 08:32:55;;;;;;;;;;;;;;;25.91;41.50;94127.22;4916257;29;7037;-63
2022/12/07 08:35:24;;;;;;;;;;;;;;;25.92;41.78;94120.47;4927033;29;7018;-62
2022/12/07 08:38:03;;;;;;;;;;;;;;;25.92;41.64;94119.72;4914418;29;7168;-63
2022/12/07 08:40:45;;;;;;;;;;;;;;;25.93;41.47;94132.22;4932881;29;9014;-63
2022/12/07 08:43:10;;;;;;;;;;;;;;;25.92;41.60;94122.47;4930664;29;7225;-62
2022/12/07 08:45:39;;;;;;;;;;;;;;;25.90;40.92;94125.72;4916657;29;7418;-62
2022/12/07 08:48:13;;;;;;;;;;;;;;;25.90;41.75;94122.25;4931161;29;7725;-63
2022/12/07 08:50:41;;;;;;;;;;;;;;;25.90;41.87;94125.72;4922275;29;7008;-62
2022/12/07 08:53:07;;;;;;;;;;;;;;;25.91;41.69;94120.97;4932354;29;9473;-63
2022/12/07 08:55:35;;;;;;;;;;;;;;;25.90;41.35;94120.22;4977659;28;8976;-63
2022/12/07 08:58:03;;;;;;;;;;;;;;;25.89;41.52;94126.25;4988283;28;7294;-62
2022/12/07 09:00:43;;;;;;;;;;;;;;;25.90;41.58;94125.72;4982441;28;8920;-62
2022/12/07 09:03:09;;;;;;;;;;;;;;;25.90;41.81;94125.00;4979820;28;8229;-63
2022/12/07 09:05:37;;;;;;;;;;;;;;;25.90;41.30;94131.22;4976436;28;7202;-63
2022/12/07 09:08:03;;;;;;;;;;;;;;;25.87;41.19;94126.03;4994195;28;7207;-63
2022/12/07 09:10:49;;;;;;;;;;;;;;;25.89;41.96;94137.28;4977546;28;7289;-63
2022/12/07 09:13:15;;;;;;;;;;;;;;;25.87;41.63;94129.53;4997803;28;7339;-63
2022/12/07 09:15:43;;;;;;;;;;;;;;;25.85;41.40;94126.56;5001405;28;7007;-62
2022/12/07 09:18:38;;;;;;;;;;;;;;;25.84;41.98;94129.81;4975499;28;7977;-63
2022/12/07 09:21:23;;;;;;;;;;;;;;;25.83;41.87;94123.56;4995267;28;7328;-63
2022/12/07 09:23:59;;;;;;;;;;;;;;;25.85;41.64;94126.56;4992066;28;7764;-63
2022/12/07 09:27:01;;;;;;;;;;;;;;;25.87;41.37;94129.53;4990492;28;7247;-63
2022/12/07 09:29:42;;;;;;;;;;;;;;;25.89;41.53;94131.75;4973864;28;7363;-63
2022/12/07 09:32:17;;;;;;;;;;;;;;;25.85;41.65;94126.56;4986931;28;9414;-63
2022/12/07 09:35:00;;;;;;;;;;;;;;;25.86;41.55;94125.28;4982294;28;9342;-63
2022/12/07 09:37:57;;;;;;;;;;;;;;;25.88;41.63;94133.03;4969019;28;9343;-63
2022/12/07 09:40:52;;;;;;;;;;;;;;;25.90;41.19;94130.50;4915808;29;7003;-63
2022/12/07 09:43:28;;;;;;;;;;;;;;;25.88;41.40;94128.25;4895174;29;7029;-63
2022/12/07 09:46:23;;;;;;;;;;;;;;;25.87;42.12;94128.78;4912005;29;9788;-63
2022/12/07 09:49:23;;;;;;;;;;;;;;;25.83;41.89;94120.81;4859972;29;9483;-63
2022/12/07 09:52:07;;;;;;;;;;;;;;;25.82;41.40;94127.56;4823042;29;9122;-63
2022/12/07 09:54:48;;;;;;;;;;;;;;;25.81;41.96;94125.34;4822815;29;7389;-63
2022/12/07 09:57:15;;;;;;;;;;;;;;;25.81;42.06;94122.59;4822112;29;8205;-63
2022/12/07 09:59:51;;;;;;;;;;;;;;;25.82;41.49;94124.06;4825924;29;7294;-64
2022/12/07 10:02:39;;;;;;;;;;;;;;;25.85;41.18;94123.03;4812166;29;7272;-62
2022/12/07 10:05:16;;;;;;;;;;;;;;;25.86;41.58;94117.00;4809641;29;7248;-64
2022/12/07 10:07:42;;;;;;;;;;;;;;;25.88;41.36;94119.25;4798792;29;8215;-62
2022/12/07 10:10:21;;;;;;;;;;;;;;;25.88;41.28;94119.25;4811882;29;7869;-64
2022/12/07 10:13:11;;;;;;;;;;;;;;;25.87;41.95;94118.50;4821432;29;7012;-62
2022/12/07 10:15:43;;;;;;;;;;;;;;;25.87;41.23;94123.28;4799546;29;9056;-63
2022/12/07 10:18:37;;;;;;;;;;;;;;;25.89;41.22;94117.97;4859732;29;7843;-63
2022/12/07 10:21:20;;;;;;;;;;;;;;;25.88;41.31;94108.25;4846552;29;7918;-62
2022/12/07 10:24:30;;;;;;;;;;;;;;;25.86;42.20;94108.03;4847713;29;8957;-63
2022/12/07 10:27:02;;;;;;;;;;;;;;;25.79;41.64;94103.09;4927617;28;9324;-63
2022/12/07 10:29:59;;;;;;;;;;;;;;;25.77;41.71;94111.13;4992775;28;7334;-63
2022/12/07 10:32:30;;;;;;;;;;;;;;;25.78;42.50;94110.59;4918492;29;7355;-63
2022/12/07 10:35:22;;;;;;;;;;;;;;;25.81;42.59;94104.06;4931255;29;7375;-64
2022/12/07 10:37:49;;;;;;;;;;;;;;;25.81;42.19;94101.31;4915618;29;7297;-63
2022/12/07 10:40:28;;;;;;;;;;;;;;;25.82;42.21;94097.28;4933536;29;7002;-63
2022/12/07 10:43:05;;;;;;;;;;;;;;;25.82;42.40;94097.28;4927997;29;7267;-63
2022/12/07 10:45:36;;;;;;;;;;;;;;;25.79;42.34;94095.56;4925675;28;7276;-62
2022/12/07 10:48:25;;;;;;;;;;;;;;;25.77;42.64;94089.84;4917206;29;9015;-63
2022/12/07 10:51:09;;;;;;;;;;;;;;;25.75;42.34;94089.59;4928084;29;9167;-63
2022/12/07 10:54:03;;;;;;;;;;;;;;;25.76;42.42;94087.59;4933839;29;7434;-63
2022/12/07 10:56:52;;;;;;;;;;;;;;;25.79;42.81;94072.78;4918508;29;7058;-62
2022/12/07 10:59:42;;;;;;;;;;;;;;;25.81;43.17;94070.25;4925441;29;8545;-64
2022/12/07 11:02:47;;;;;;;;;;;;;;;25.82;42.36;94057.94;4932363;29;8863;-63
2022/12/07 11:05:28;;;;;;;;;;;;;;;25.79;43.15;94067.28;4923357;29;7042;-64
2022/12/07 11:07:59;;;;;;;;;;;;;;;25.75;42.43;94062.03;4920889;28;8256;-63
2022/12/07 11:10:42;;;;;;;;;;;;;;;25.72;42.71;94056.84;4989198;28;9464;-62
2022/12/07 11:13:57;;;;;;;;;;;;;;;25.70;42.85;94056.63;4983429;28;9341;-64
2022/12/07 11:16:42;;;;;;;;;;;;;;;25.69;43.49;94042.09;4985523;28;7285;-64
2022/12/07 11:19:36;;;;;;;;;;;;;;;25.69;43.03;94052.34;4991308;28;7042;-64
2022/12/07 11:22:55;;;;;;;;;;;;;;;25.74;43.22;94043.28;4982712;28;7281;-63
2022/12/07 11:26:11;;;;;;;;;;;;;;;25.75;42.67;94045.50;4925392;29;9339;-62
2022/12/07 11:29:05;;;;;;;;;;;;;;;25.73;42.50;94039.78;4926070;28;9309;-64
2022/12/07 11:31:54;;;;;;;;;;;;;;;25.71;42.32;94039.56;4949064;28;7378;-63
2022/12/07 11:34:54;;;;;;;;;;;;;;;25.72;43.03;94038.31;4946868;28;7316;-64
2022/12/07 11:37:37;;;;;;;;;;;;;;;25.72;42.46;94032.78;4955396;28;7388;-64
2022/12/07 11:40:41;;;;;;;;;;;;;;;25.71;42.43;94034.03;4931389;28;9397;-62
2022/12/07 11:43:31;;;;;;;;;;;;;;;25.70;42.83;94032.56;4938940;28;9406;-63
2022/12/07 11:46:34;;;;;;;;;;;;;;;25.70;42.19;94029.81;4951520;28;7058;-64
2022/12/07 11:49:52;;;;;;;;;;;;;;;25.74;42.94;94032.25;4890436;29;8749;-64
2022/12/07 11:53:13;;;;;;;;;;;;;;;25.76;42.76;94033.25;4828567;29;7040;-64
2022/12/07 11:56:15;;;;;;;;;;;;;;;25.73;42.06;94023.25;4781755;30;7241;-63
2022/12/07 11:59:10;;;;;;;;;;;;;;;25.77;42.97;94014.72;4785179;30;7387;-63
2022/12/07 12:01:38;;;;;;;;;;;;;;;25.79;42.15;94020.44;4785319;30;7052;-63
2022/12/07 12:04:21;;;;;;;;;;;;;;;25.81;42.24;94017.91;4769837;30;7308;-61
2022/12/07 12:06:49;;;;;;;;;;;;;;;25.80;42.71;94017.16;4799638;29;7369;-64
2022/12/07 12:09:25;;;;;;;;;;;;;;;25.83;42.81;94016.13;4770309;30;8973;-63
2022/12/07 12:12:16;;;;;;;;;;;;;;;25.87;42.50;94016.56;4784722;30;7236;-64
2022/12/07 12:14:59;;;;;;;;;;;;;;;25.87;41.87;94010.31;4771298;29;7127;-63
2022/12/07 12:17:35;;;;;;;;;;;;;;;25.84;41.91;94001.06;4784090;29;7013;-63
2022/12/07 12:20:22;;;;;;;;;;;;;;;25.85;42.23;94005.31;4768809;30;7006;-60
2022/12/07 12:22:56;;;;;;;;;;;;;;;25.87;42.32;93997.28;4780021;29;7245;-60
2022/12/07 12:25:33;;;;;;;;;;;;;;;25.92;42.31;94001.22;4809829;29;7123;-61
2022/12/07 12:28:00;;;;;;;;;;;;;;;25.92;41.94;93998.47;4934822;28;7010;-61
2022/12/07 12:30:34;;;;;;;;;;;;;;;25.90;41.95;93987.94;4984054;28;7281;-62
2022/12/07 12:33:22;;;;;;;;;;;;;;;25.92;42.32;93990.22;4997464;28;7021;-60
2022/12/07 12:36:49;;;;;;;;;;;;;;;25.95;42.61;93991.91;4979085;28;7361;-61
2022/12/07 12:39:18;;;;;;;;;;;;;;;25.92;42.50;93987.44;4936800;28;6951;-62
2022/12/07 12:44:19;;;;;;;;;;;;;;;25.93;42.14;93986.16;4946310;28;7111;-61
2022/12/07 12:47:00;;;;;;;;;;;;;;;25.95;42.46;93989.16;4946486;28;6984;-62
2022/12/07 12:49:29;;;;;;;;;;;;;;;25.95;41.68;93984.38;4940672;28;7049;-60
2022/12/07 12:52:00;;;;;;;;;;;;;;;25.94;41.99;93977.41;4949716;28;7097;-61
2022/12/07 12:55:09;;;;;;;;;;;;;;;25.95;42.73;93972.59;4937613;28;8766;-62
2022/12/07 12:57:37;;;;;;;;;;;;;;;25.94;42.53;93980.16;4951165;28;7026;-61
2022/12/07 13:00:27;;;;;;;;;;;;;;;25.95;43.19;93975.38;4951862;28;7073;-62
2022/12/07 13:03:27;;;;;;;;;;;;;;;25.93;43.77;93978.66;4949769;28;7343;-62
2022/12/07 13:06:23;;;;;;;;;;;;;;;25.93;43.43;93977.91;4912787;29;7339;-62
2022/12/07 13:08:52;;;;;;;;;;;;;;;25.92;43.31;93970.91;4910440;29;7534;-62
2022/12/07 13:11:29;;;;;;;;;;;;;;;25.91;43.90;93961.16;4933043;29;7105;-61
2022/12/07 13:14:33;;;;;;;;;;;;;;;25.90;44.31;93954.88;4932674;29;7019;-61
2022/12/07 13:17:31;;;;;;;;;;;;;;;25.90;43.86;93959.69;4945334;28;7268;-61
2022/12/07 13:20:02;;;;;;;;;;;;;;;25.91;42.64;93956.38;4903032;29;7102;-62
2022/12/07 13:22:39;;;;;;;;;;;;;;;25.89;42.65;93953.41;4900108;29;7158;-60
2022/12/07 13:25:38;;;;;;;;;;;;;;;25.88;43.32;93951.19;4887291;29;7305;-61
2022/12/07 13:28:33;;;;;;;;;;;;;;;25.89;43.47;93945.16;4878061;29;7131;-61
2022/12/07 13:31:38;;;;;;;;;;;;;;;25.89;42.50;93953.41;4896227;29;7042;-61
2022/12/07 13:34:25;;;;;;;;;;;;;;;25.88;42.74;93951.91;4889059;29;7386;-60
2022/12/07 13:36:53;;;;;;;;;;;;;;;25.92;42.45;93944.13;4893514;29;9414;-62
2022/12/07 13:39:36;;;;;;;;;;;;;;;25.91;42.36;93937.09;4895938;29;9695;-62
2022/12/07 13:42:26;;;;;;;;;;;;;;;25.94;43.07;93933.31;4900360;28;7355;-61
2022/12/07 13:45:21;;;;;;;;;;;;;;;25.95;42.88;93934.78;4928809;29;7368;-60
2022/12/07 13:47:57;;;;;;;;;;;;;;;25.95;43.07;93932.03;4925777;29;7185;-61
2022/12/07 13:50:25;;;;;;;;;;;;;;;25.97;43.15;93935.00;4927020;29;7164;-62
2022/12/07 13:53:15;;;;;;;;;;;;;;;25.96;42.72;93936.28;4929216;29;7051;-62
2022/12/07 13:56:14;;;;;;;;;;;;;;;25.98;43.05;93933.75;4921948;28;7772;-60
2022/12/07 13:59:17;;;;;;;;;;;;;;;26.00;43.14;93931.22;4951733;28;8649;-61
2022/12/07 14:01:56;;;;;;;;;;;;;;;25.99;42.45;93940.72;4908610;29;7073;-62
2022/12/07 14:04:36;;;;;;;;;;;;;;;26.00;42.43;93936.72;4913781;29;7037;-61